createdAt,value
2022-12-11T00:00:30.724Z,43.63
2022-12-11T00:03:18.679Z,41.93
2022-12-11T00:06:08.188Z,47.37
2022-12-11T00:08:55.581Z,45.00
2022-12-11T00:11:42.724Z,43.07
2022-12-11T00:14:29.908Z,45.23
2022-12-11T00:17:16.966Z,43.47
2022-12-11T00:20:05.131Z,42.93
2022-12-11T00:22:52.124Z,43.60
2022-12-11T00:25:44.308Z,45.80
2022-12-11T00:28:31.317Z,44.90
2022-12-11T00:31:20.223Z,42.23
2022-12-11T00:34:07.473Z,47.00
2022-12-11T00:36:54.441Z,41.77
2022-12-11T00:39:41.385Z,47.00
2022-12-11T00:42:28.359Z,44.87
2022-12-11T00:45:15.736Z,41.83
2022-12-11T00:48:02.755Z,43.50
2022-12-11T00:50:49.733Z,45.57
2022-12-11T00:53:37.353Z,46.47
2022-12-11T00:56:25.385Z,39.00
2022-12-11T00:59:12.372Z,42.93
2022-12-11T01:01:59.362Z,46.40
2022-12-11T01:04:46.333Z,45.53
2022-12-11T01:07:33.328Z,44.83
2022-12-11T01:10:26.292Z,45.77
2022-12-11T01:13:13.400Z,50.93
2022-12-11T01:16:00.384Z,44.43
2022-12-11T01:18:47.405Z,47.90
2022-12-11T01:21:34.400Z,46.37
2022-12-11T01:24:21.532Z,46.53
2022-12-11T01:27:08.623Z,46.83
2022-12-11T01:29:55.716Z,48.10
2022-12-11T01:32:42.685Z,45.07
2022-12-11T01:35:29.807Z,45.30
2022-12-11T01:38:16.728Z,48.63
2022-12-11T01:41:03.940Z,45.97
2022-12-11T01:43:57.964Z,42.77
2022-12-11T01:46:44.985Z,45.87
2022-12-11T01:49:32.000Z,46.97
2022-12-11T01:52:22.323Z,48.30
2022-12-11T01:55:10.321Z,46.33
2022-12-11T01:57:57.797Z,51.83
2022-12-11T02:00:44.751Z,53.57
2022-12-11T02:03:32.268Z,43.80
2022-12-11T02:06:41.993Z,53.63
2022-12-11T02:09:35.368Z,42.27
2022-12-11T02:12:40.808Z,51.87
2022-12-11T02:15:38.028Z,47.07
2022-12-11T02:18:45.917Z,45.43
2022-12-11T02:21:41.249Z,51.67
2022-12-11T02:24:58.523Z,40.87
2022-12-11T02:27:50.513Z,43.03
2022-12-11T02:30:40.744Z,49.60
2022-12-11T02:33:44.006Z,55.37
2022-12-11T02:36:36.107Z,49.97
2022-12-11T02:39:27.105Z,45.10
2022-12-11T02:42:16.559Z,48.53
2022-12-11T02:45:05.729Z,46.03
2022-12-11T02:47:53.069Z,49.30
2022-12-11T02:50:45.421Z,51.97
2022-12-11T02:53:35.288Z,48.63
2022-12-11T02:57:02.026Z,49.23
2022-12-11T02:59:49.670Z,51.47
2022-12-11T03:02:38.342Z,46.33
2022-12-11T03:05:27.296Z,50.17
2022-12-11T03:08:17.593Z,43.20
2022-12-11T03:11:04.841Z,44.60
2022-12-11T03:13:53.897Z,54.57
2022-12-11T03:16:59.892Z,52.27
2022-12-11T03:20:00.733Z,51.70
2022-12-11T03:22:57.752Z,49.60
2022-12-11T03:26:03.485Z,46.70
2022-12-11T03:29:08.005Z,54.77
2022-12-11T03:32:20.055Z,57.13
2022-12-11T03:35:14.869Z,48.50
2022-12-11T03:38:08.379Z,53.70
2022-12-11T03:40:59.845Z,54.00
2022-12-11T03:43:48.438Z,51.07
2022-12-11T03:46:40.113Z,52.77
2022-12-11T03:49:31.890Z,53.33
2022-12-11T03:52:20.156Z,51.13
2022-12-11T03:55:09.396Z,57.67
2022-12-11T03:57:56.769Z,54.17
2022-12-11T04:00:44.070Z,51.23
2022-12-11T04:03:31.175Z,54.93
2022-12-11T04:06:18.292Z,56.43
2022-12-11T04:09:05.597Z,53.27
2022-12-11T04:11:52.552Z,53.77
2022-12-11T04:14:57.989Z,58.87
2022-12-11T04:18:06.830Z,51.60
2022-12-11T04:21:13.416Z,50.13
2022-12-11T04:24:15.673Z,48.00
2022-12-11T04:27:02.682Z,51.20
2022-12-11T04:29:49.783Z,47.93
2022-12-11T04:32:36.887Z,57.23
2022-12-11T04:35:24.072Z,54.20
2022-12-11T04:38:11.225Z,53.30
2022-12-11T04:41:03.302Z,52.67
2022-12-11T04:43:50.300Z,51.07
2022-12-11T04:46:37.276Z,53.77
2022-12-11T04:49:24.288Z,46.93
2022-12-11T04:52:11.269Z,51.50
2022-12-11T04:54:58.390Z,44.60
2022-12-11T04:57:45.413Z,48.27
2022-12-11T05:00:33.262Z,46.57
2022-12-11T05:03:21.329Z,45.13
2022-12-11T05:06:09.922Z,52.07
2022-12-11T05:08:57.040Z,49.03
2022-12-11T05:11:44.110Z,50.50
2022-12-11T05:14:32.529Z,49.17
2022-12-11T05:17:21.208Z,51.07
2022-12-11T05:20:08.659Z,46.43
2022-12-11T05:22:55.704Z,47.17
2022-12-11T05:25:42.698Z,50.20
2022-12-11T05:28:32.981Z,55.77
2022-12-11T05:31:25.844Z,47.50
2022-12-11T05:34:13.018Z,51.43
2022-12-11T05:37:00.023Z,49.90
2022-12-11T05:39:47.030Z,51.17
2022-12-11T05:42:34.921Z,49.97
2022-12-11T05:45:22.134Z,49.40
2022-12-11T05:48:09.126Z,47.57
2022-12-11T05:50:58.023Z,48.37
2022-12-11T05:53:46.486Z,48.70
2022-12-11T05:56:34.922Z,53.53
2022-12-11T05:59:21.975Z,47.60
2022-12-11T06:02:09.056Z,49.63
2022-12-11T06:04:56.274Z,45.70
2022-12-11T06:07:43.328Z,47.30
2022-12-11T06:10:30.527Z,51.77
2022-12-11T06:13:17.688Z,51.43
2022-12-11T06:16:06.708Z,50.93
2022-12-11T06:18:58.044Z,47.57
2022-12-11T06:21:45.940Z,52.13
2022-12-11T06:24:33.025Z,48.23
2022-12-11T06:27:20.546Z,49.83
2022-12-11T06:30:08.390Z,50.50
2022-12-11T06:32:55.472Z,50.53
2022-12-11T06:35:42.696Z,50.73
2022-12-11T06:38:29.783Z,54.43
2022-12-11T06:41:17.525Z,52.70
2022-12-11T06:44:04.695Z,50.27
2022-12-11T06:46:51.740Z,53.77
2022-12-11T06:49:38.769Z,47.97
2022-12-11T06:52:27.754Z,52.50
2022-12-11T06:55:14.834Z,48.87
2022-12-11T06:58:02.257Z,52.97
2022-12-11T07:00:49.346Z,54.60
2022-12-11T07:03:36.818Z,52.23
2022-12-11T07:06:25.642Z,49.80
2022-12-11T07:09:13.301Z,51.27
2022-12-11T07:12:00.422Z,49.67
2022-12-11T07:14:47.472Z,48.00
2022-12-11T07:17:34.563Z,52.57
2022-12-11T07:20:21.708Z,56.93
2022-12-11T07:23:09.208Z,58.73
2022-12-11T07:25:57.033Z,54.53
2022-12-11T07:28:44.340Z,51.93
2022-12-11T07:31:31.462Z,52.27
2022-12-11T07:34:18.836Z,48.03
2022-12-11T07:37:06.150Z,51.73
2022-12-11T07:39:53.278Z,49.83
2022-12-11T07:42:46.000Z,56.00
2022-12-11T07:45:33.370Z,49.87
2022-12-11T07:48:20.533Z,54.93
2022-12-11T07:51:17.630Z,56.87
2022-12-11T07:54:08.314Z,49.97
2022-12-11T07:56:55.339Z,46.53
2022-12-11T07:59:42.395Z,56.63
2022-12-11T08:02:35.445Z,53.40
2022-12-11T08:05:24.732Z,51.03
2022-12-11T08:08:11.878Z,56.50
2022-12-11T08:11:03.846Z,52.43
2022-12-11T08:13:50.931Z,49.07
2022-12-11T08:16:40.316Z,54.70
2022-12-11T08:19:28.148Z,53.03
2022-12-11T08:22:15.231Z,50.33
2022-12-11T08:25:02.374Z,54.47
2022-12-11T08:27:49.729Z,53.60
2022-12-11T08:30:40.145Z,58.13
2022-12-11T08:33:27.379Z,52.13
2022-12-11T08:36:17.813Z,55.97
2022-12-11T08:39:05.000Z,54.17
2022-12-11T08:41:51.995Z,56.90
2022-12-11T08:44:39.176Z,52.50
2022-12-11T08:47:26.501Z,53.87
2022-12-11T08:50:13.594Z,50.53
2022-12-11T08:53:00.610Z,51.10
2022-12-11T08:55:47.929Z,54.63
2022-12-11T08:58:35.878Z,50.53
2022-12-11T09:01:26.018Z,52.00
2022-12-11T09:04:13.139Z,48.57
2022-12-11T09:07:00.195Z,55.33
2022-12-11T09:09:47.471Z,53.67
2022-12-11T09:12:35.548Z,60.27
2022-12-11T09:15:22.824Z,57.97
2022-12-11T09:18:10.638Z,58.93
2022-12-11T09:21:02.716Z,55.37
2022-12-11T09:23:53.969Z,52.57
2022-12-11T09:26:41.425Z,52.37
2022-12-11T09:29:28.507Z,53.93
2022-12-11T09:32:15.567Z,60.43
2022-12-11T09:35:02.820Z,53.33
2022-12-11T09:37:49.872Z,50.87
2022-12-11T09:40:43.386Z,47.90
2022-12-11T09:44:11.517Z,52.03
2022-12-11T09:46:59.160Z,50.27
2022-12-11T09:49:49.874Z,52.13
2022-12-11T09:52:55.747Z,51.57
2022-12-11T09:56:16.568Z,55.47
2022-12-11T09:59:23.622Z,50.70
2022-12-11T10:02:32.187Z,51.63
2022-12-11T10:05:38.295Z,49.20
2022-12-11T10:08:49.709Z,50.47
2022-12-11T10:11:57.189Z,49.80
2022-12-11T10:15:02.988Z,52.17
2022-12-11T10:17:53.924Z,49.50
2022-12-11T10:20:42.883Z,48.17
2022-12-11T10:23:40.667Z,47.90
2022-12-11T10:26:29.933Z,45.07
2022-12-11T10:29:19.302Z,45.57
2022-12-11T10:32:17.753Z,46.03
2022-12-11T10:35:06.538Z,50.20
2022-12-11T10:38:01.852Z,47.80
2022-12-11T10:41:13.837Z,47.77
2022-12-11T10:44:02.240Z,45.43
2022-12-11T10:47:21.180Z,49.30
2022-12-11T10:50:22.230Z,47.47
2022-12-11T10:53:21.295Z,44.80
2022-12-11T10:56:08.316Z,47.60
2022-12-11T10:58:56.985Z,48.40
2022-12-11T11:01:47.047Z,49.80
2022-12-11T11:04:38.858Z,54.23
2022-12-11T11:07:30.504Z,51.30
2022-12-11T11:10:18.296Z,49.40
2022-12-11T11:13:05.392Z,46.57
2022-12-11T11:16:02.175Z,44.07
2022-12-11T11:18:53.728Z,51.00
2022-12-11T11:21:50.794Z,52.00
2022-12-11T11:24:44.856Z,52.00
2022-12-11T11:27:37.162Z,46.10
2022-12-11T11:30:41.788Z,46.37
2022-12-11T11:33:30.146Z,51.80
2022-12-11T11:36:26.911Z,46.30
2022-12-11T11:39:46.438Z,55.00
2022-12-11T11:43:02.346Z,49.57
2022-12-11T11:45:58.911Z,46.13
2022-12-11T11:49:17.574Z,53.23
2022-12-11T11:52:36.882Z,45.53
2022-12-11T11:56:22.263Z,50.50
2022-12-11T11:59:46.540Z,52.90
2022-12-11T12:02:49.328Z,45.87
2022-12-11T12:05:51.758Z,48.27
2022-12-11T12:08:38.954Z,54.50
2022-12-11T12:11:32.322Z,49.97
2022-12-11T12:18:07.927Z,56.40
2022-12-11T12:21:13.302Z,52.23
2022-12-11T12:24:18.213Z,55.23
2022-12-11T12:27:50.870Z,47.50
2022-12-11T12:30:57.566Z,53.93
2022-12-11T12:34:06.111Z,50.73
2022-12-11T12:37:30.831Z,51.53
2022-12-11T12:40:36.598Z,48.70
2022-12-11T12:43:32.912Z,49.67
2022-12-11T12:46:31.999Z,46.97
2022-12-11T12:49:33.327Z,50.43
2022-12-11T12:52:36.506Z,53.20
2022-12-11T12:55:27.306Z,44.47
2022-12-11T12:58:30.595Z,48.97
2022-12-11T13:01:38.885Z,42.73
2022-12-11T13:04:55.582Z,48.83
2022-12-11T13:07:54.265Z,49.33
2022-12-11T13:10:43.185Z,51.17
2022-12-11T13:13:38.610Z,53.40
2022-12-11T13:16:34.657Z,51.00
2022-12-11T13:19:27.604Z,51.17
2022-12-11T13:22:14.611Z,53.77
2022-12-11T13:25:20.141Z,59.77
2022-12-11T13:28:21.970Z,57.20
2022-12-11T13:31:15.025Z,53.53
2022-12-11T13:34:23.556Z,52.17
2022-12-11T13:37:36.230Z,59.97
2022-12-11T13:40:28.119Z,53.87
2022-12-11T13:43:24.694Z,53.33
2022-12-11T13:46:22.396Z,50.93
2022-12-11T13:49:22.337Z,49.07
2022-12-11T13:52:22.300Z,53.37
2022-12-11T13:55:35.629Z,54.60
2022-12-11T13:58:24.186Z,59.87
2022-12-11T14:01:22.956Z,58.80
2022-12-11T14:04:16.877Z,50.43
2022-12-11T14:07:08.379Z,51.33
2022-12-11T14:10:05.856Z,54.77
2022-12-11T14:13:13.300Z,55.90
2022-12-11T14:16:01.687Z,51.83
2022-12-11T14:18:52.076Z,55.53
2022-12-11T14:21:39.901Z,51.90
2022-12-11T14:24:30.630Z,51.13
2022-12-11T14:27:19.923Z,47.93
2022-12-11T14:30:12.570Z,50.20
2022-12-11T14:33:05.444Z,52.77
2022-12-11T14:35:54.452Z,46.90
2022-12-11T14:38:49.662Z,54.13
2022-12-11T14:41:55.186Z,56.50
2022-12-11T14:44:57.733Z,54.47
2022-12-11T14:47:47.578Z,53.87
2022-12-11T14:50:46.264Z,54.47
2022-12-11T14:53:38.708Z,58.80
2022-12-11T14:56:29.554Z,59.07
2022-12-11T14:59:28.373Z,57.37
2022-12-11T15:02:26.283Z,54.30
2022-12-11T15:05:16.220Z,54.77
2022-12-11T15:08:27.602Z,57.53
2022-12-11T15:11:18.339Z,52.57
2022-12-11T15:14:06.031Z,58.90
2022-12-11T15:16:58.888Z,61.10
2022-12-11T15:19:51.801Z,60.00
2022-12-11T15:22:43.727Z,59.47
2022-12-11T15:25:31.210Z,55.93
2022-12-11T15:28:32.823Z,53.13
2022-12-11T15:31:37.245Z,54.50
2022-12-11T15:34:25.007Z,57.80
2022-12-11T15:37:21.421Z,54.47
2022-12-11T15:40:12.885Z,52.20
2022-12-11T15:43:05.948Z,55.33
2022-12-11T15:45:53.456Z,58.73
2022-12-11T15:48:40.969Z,55.03
2022-12-11T15:51:29.407Z,52.80
2022-12-11T15:54:17.813Z,55.40
2022-12-11T15:57:09.960Z,51.83
2022-12-11T15:59:58.959Z,55.30
2022-12-11T16:02:47.493Z,53.20
2022-12-11T16:05:37.750Z,57.10
2022-12-11T16:08:31.258Z,63.10
2022-12-11T16:11:20.353Z,58.10
2022-12-11T16:14:09.392Z,59.60
2022-12-11T16:16:56.739Z,55.77
2022-12-11T16:19:46.280Z,56.93
2022-12-11T16:22:36.727Z,56.63
2022-12-11T16:25:26.125Z,60.07
2022-12-11T16:28:16.274Z,53.30
2022-12-11T16:31:04.001Z,57.07
2022-12-11T16:33:51.486Z,57.53
2022-12-11T16:36:38.884Z,59.70
2022-12-11T16:39:26.508Z,54.80
2022-12-11T16:42:13.814Z,55.83
2022-12-11T16:45:16.362Z,51.30
2022-12-11T16:48:07.527Z,49.30
2022-12-11T16:51:00.620Z,46.07
2022-12-11T16:53:48.254Z,46.40
2022-12-11T16:56:35.512Z,46.47
2022-12-11T16:59:24.472Z,43.50
2022-12-11T17:02:12.830Z,47.60
2022-12-11T17:05:00.337Z,47.87
2022-12-11T17:07:54.623Z,45.87
2022-12-11T17:10:47.455Z,48.30
2022-12-11T17:13:36.227Z,44.00
2022-12-11T17:16:26.514Z,50.03
2022-12-11T17:19:14.679Z,44.60
2022-12-11T17:22:05.080Z,41.80
2022-12-11T17:24:53.396Z,43.47
2022-12-11T17:27:40.721Z,40.73
2022-12-11T17:30:28.301Z,46.47
2022-12-11T17:33:16.497Z,43.97
2022-12-11T17:36:05.056Z,47.17
2022-12-11T17:38:52.399Z,47.47
2022-12-11T17:41:44.843Z,42.70
2022-12-11T17:44:37.334Z,47.70
2022-12-11T17:47:24.789Z,44.70
2022-12-11T17:50:12.228Z,49.00
2022-12-11T17:52:59.829Z,45.20
2022-12-11T17:55:50.502Z,50.27
2022-12-11T17:58:40.546Z,45.17
2022-12-11T18:01:30.933Z,46.73
2022-12-11T18:04:18.641Z,46.17
2022-12-11T18:07:12.209Z,41.67
2022-12-11T18:09:59.848Z,45.23
2022-12-11T18:12:50.107Z,55.33
2022-12-11T18:15:38.598Z,47.23
2022-12-11T18:18:26.184Z,43.97
2022-12-11T18:21:20.227Z,43.90
2022-12-11T18:24:08.853Z,45.30
2022-12-11T18:26:56.589Z,47.20
2022-12-11T18:29:47.009Z,42.17
2022-12-11T18:32:37.245Z,47.27
2022-12-11T18:35:25.916Z,44.93
2022-12-11T18:38:13.320Z,51.27
2022-12-11T18:41:09.025Z,47.37
2022-12-11T18:43:57.321Z,45.00
2022-12-11T18:46:44.745Z,42.90
2022-12-11T18:49:32.527Z,48.57
2022-12-11T18:52:20.211Z,49.47
2022-12-11T18:55:08.041Z,48.50
2022-12-11T18:57:56.663Z,46.27
2022-12-11T19:00:45.118Z,47.90
2022-12-11T19:03:33.283Z,50.07
2022-12-11T19:06:24.783Z,47.90
2022-12-11T19:09:13.292Z,53.97
2022-12-11T19:12:01.181Z,51.43
2022-12-11T19:14:49.247Z,53.73
2022-12-11T19:17:39.185Z,52.07
2022-12-11T19:23:35.603Z,50.80
2022-12-11T19:26:25.578Z,54.30
2022-12-11T19:29:28.567Z,48.73
2022-12-11T19:32:18.374Z,59.87
2022-12-11T19:35:09.149Z,54.57
2022-12-11T19:37:57.057Z,56.80
2022-12-11T19:40:46.354Z,55.87
2022-12-11T19:43:38.750Z,59.20
2022-12-11T19:46:27.002Z,58.67
2022-12-11T19:49:14.510Z,49.40
2022-12-11T19:52:02.048Z,58.27
2022-12-11T19:54:49.340Z,57.40
2022-12-11T19:57:37.218Z,58.57
2022-12-11T20:00:25.226Z,53.97
2022-12-11T20:03:13.406Z,59.23
2022-12-11T20:06:08.761Z,58.70
2022-12-11T20:08:56.736Z,62.07
2022-12-11T20:11:48.173Z,57.47
2022-12-11T20:14:35.456Z,55.83
2022-12-11T20:17:24.884Z,59.03
2022-12-11T20:20:19.521Z,62.87
2022-12-11T20:23:09.857Z,58.60
2022-12-11T20:26:03.258Z,63.60
2022-12-11T20:28:55.166Z,61.63
2022-12-11T20:31:42.541Z,63.10
2022-12-11T20:34:32.916Z,61.83
2022-12-11T20:37:24.796Z,61.17
2022-12-11T20:40:16.200Z,66.60
2022-12-11T20:43:03.806Z,62.73
2022-12-11T20:45:54.832Z,61.27
2022-12-11T20:48:44.110Z,61.93
2022-12-11T20:51:34.142Z,58.77
2022-12-11T20:54:21.893Z,62.57
2022-12-11T20:57:14.059Z,60.67
2022-12-11T21:00:01.322Z,61.00
2022-12-11T21:02:52.439Z,59.17
2022-12-11T21:05:44.741Z,64.90
2022-12-11T21:08:31.743Z,71.33
2022-12-11T21:11:18.984Z,70.03
2022-12-11T21:14:06.586Z,64.37
2022-12-11T21:16:54.091Z,78.10
2022-12-11T21:19:41.152Z,75.90
2022-12-11T21:22:28.660Z,70.20
2022-12-11T21:25:15.712Z,65.57
2022-12-11T21:28:02.764Z,68.07
2022-12-11T21:30:49.988Z,67.07
2022-12-11T21:33:37.409Z,70.07
2022-12-11T21:36:24.954Z,69.73
2022-12-11T21:39:17.885Z,62.53
2022-12-11T21:42:06.465Z,62.83
2022-12-11T21:45:52.195Z,67.80
2022-12-11T21:48:01.828Z,69.23
2022-12-11T21:50:53.518Z,70.70
2022-12-11T21:53:42.593Z,70.60
2022-12-11T21:56:31.882Z,67.63
2022-12-11T21:59:19.600Z,64.43
2022-12-11T22:02:08.649Z,60.10
2022-12-11T22:04:56.225Z,65.13
2022-12-11T22:07:44.274Z,71.27
2022-12-11T22:10:31.496Z,66.53
2022-12-11T22:13:20.473Z,72.63
2022-12-11T22:16:08.686Z,62.10
2022-12-11T22:18:56.503Z,66.90
2022-12-11T22:21:45.798Z,67.40
2022-12-11T22:24:33.667Z,69.43
2022-12-11T22:27:23.834Z,70.13
2022-12-11T22:30:12.664Z,70.23
2022-12-11T22:33:00.282Z,66.37
2022-12-11T22:35:48.046Z,75.20
2022-12-11T22:38:36.038Z,70.13
2022-12-11T22:41:29.893Z,65.27
2022-12-11T22:44:20.439Z,75.63
2022-12-11T22:47:07.936Z,70.37
2022-12-11T22:49:56.034Z,67.63
2022-12-11T22:52:44.935Z,65.67
2022-12-11T22:55:32.564Z,68.67
2022-12-11T22:58:21.877Z,70.73
2022-12-11T23:01:16.845Z,69.90
2022-12-11T23:04:03.913Z,60.40
2022-12-11T23:06:50.960Z,66.93
2022-12-11T23:09:37.983Z,59.83
2022-12-11T23:12:24.991Z,62.77
2022-12-11T23:15:12.326Z,72.73
2022-12-11T23:17:59.695Z,62.27
2022-12-11T23:20:46.776Z,72.10
2022-12-11T23:23:33.898Z,68.13
2022-12-11T23:26:22.853Z,73.17
2022-12-11T23:29:10.325Z,70.60
2022-12-11T23:31:57.293Z,65.57
2022-12-11T23:34:44.251Z,60.70
2022-12-11T23:37:31.906Z,62.83
2022-12-11T23:40:18.963Z,65.53
2022-12-11T23:43:05.977Z,70.17
2022-12-11T23:45:53.011Z,67.27
2022-12-11T23:48:40.360Z,68.17
2022-12-11T23:51:28.245Z,76.77
2022-12-11T23:54:15.224Z,65.33
2022-12-11T23:57:02.286Z,74.20
2022-12-11T23:59:49.262Z,65.80
